Time;durP1;ratioP1;P1;durP2;ratioP2;P2;SDS_P1;SDS_P2;PMS_P1;PMS_P2;Temp;Humidity;BMP_temperature;BMP_pressure;BME280_temperature;BME280_humidity;BME280_pressure;Samples;Min_cycle;Max_cycle;Signal;HPM_P1;HPM_P2
2023/08/25 00:02:19;;;;;;;39.47;22.90;;;;;;;17.95;100.00;101047.56;5095775;28;20024;-78
2023/08/25 00:04:45;;;;;;;53.80;27.02;;;;;;;17.92;100.00;101049.78;5095832;28;20116;-78
2023/08/25 00:07:11;;;;;;;50.22;26.92;;;;;;;17.91;100.00;101050.78;5095446;28;20032;-78
2023/08/25 00:09:36;;;;;;;45.55;25.20;;;;;;;17.89;100.00;101050.97;5095646;28;20039;-78
2023/08/25 00:12:02;;;;;;;52.13;26.10;;;;;;;17.87;100.00;101044.91;5077316;28;20035;-78
2023/08/25 00:14:27;;;;;;;48.17;25.77;;;;;;;17.86;100.00;101042.41;5095253;28;20028;-78
2023/08/25 00:16:53;;;;;;;49.35;26.48;;;;;;;17.82;100.00;101038.41;5095296;28;20533;-78
2023/08/25 00:19:18;;;;;;;48.13;25.30;;;;;;;17.80;100.00;101047.47;5095513;28;20361;-78
2023/08/25 00:21:45;;;;;;;50.28;25.73;;;;;;;17.76;100.00;101048.03;5095299;28;20126;-79
2023/08/25 00:24:10;;;;;;;53.75;25.85;;;;;;;17.76;100.00;101046.16;5095134;28;20361;-78
2023/08/25 00:26:37;;;;;;;57.45;25.08;;;;;;;17.75;100.00;101047.22;5095238;28;20039;-77
2023/08/25 00:29:02;;;;;;;47.00;24.00;;;;;;;17.74;100.00;101042.84;5095125;28;20048;-78
2023/08/25 00:31:28;;;;;;;39.22;21.80;;;;;;;17.70;100.00;101038.81;5094895;28;20032;-78
2023/08/25 00:33:54;;;;;;;43.40;22.65;;;;;;;17.69;100.00;101039.88;5095452;28;20085;-78
2023/08/25 00:36:19;;;;;;;51.95;23.67;;;;;;;17.68;100.00;101042.72;5060322;28;20089;-78
2023/08/25 00:38:45;;;;;;;40.25;20.58;;;;;;;17.67;100.00;101038.38;5094413;28;20036;-78
2023/08/25 00:41:10;;;;;;;42.30;21.77;;;;;;;17.67;100.00;101030.28;5095321;28;20039;-78
2023/08/25 00:43:38;;;;;;;39.78;19.83;;;;;;;17.62;100.00;101047.81;5095317;28;20471;-77
2023/08/25 00:46:03;;;;;;;38.60;21.85;;;;;;;17.57;100.00;101041.28;5095130;28;20040;-78
2023/08/25 00:48:29;;;;;;;39.70;20.90;;;;;;;17.54;100.00;101047.03;5095046;28;20028;-77
2023/08/25 00:50:55;;;;;;;44.33;22.67;;;;;;;17.48;100.00;101045.91;5094677;28;20076;-78
2023/08/25 00:53:21;;;;;;;37.67;21.17;;;;;;;17.41;100.00;101051.16;5076443;28;20037;-77
2023/08/25 00:55:48;;;;;;;39.67;20.08;;;;;;;17.37;100.00;101049.84;5094692;28;20039;-78
2023/08/25 00:58:15;;;;;;;40.90;20.20;;;;;;;17.38;100.00;101037.25;5094672;28;20521;-78
2023/08/25 01:00:43;;;;;;;35.65;18.48;;;;;;;17.34;100.00;101044.00;5094594;28;20032;-77
2023/08/25 01:03:09;;;;;;;38.60;19.48;;;;;;;17.26;100.00;101045.72;5094875;28;20032;-78
2023/08/25 01:05:34;;;;;;;38.78;19.02;;;;;;;17.22;100.00;101041.69;5076648;28;20036;-78
2023/08/25 01:07:59;;;;;;;34.85;18.30;;;;;;;17.17;100.00;101046.78;5094558;28;20058;-78
2023/08/25 01:10:39;;;;;;;28.65;16.10;;;;;;;17.12;100.00;101038.41;5094892;28;20039;-79
2023/08/25 01:13:13;;;;;;;30.52;17.48;;;;;;;17.04;100.00;101041.97;5094613;28;20107;-78
2023/08/25 01:15:42;;;;;;;31.17;17.40;;;;;;;17.01;100.00;101038.81;5094095;28;20049;-77
2023/08/25 01:18:41;;;;;;;37.78;19.67;;;;;;;17.06;100.00;101049.88;5094590;28;20039;-78
2023/08/25 01:21:08;;;;;;;37.13;19.23;;;;;;;17.10;100.00;101043.94;5038943;28;20480;-78
2023/08/25 01:24:13;;;;;;;37.67;20.00;;;;;;;17.17;100.00;101046.78;5094411;28;20032;-76
2023/08/25 01:26:38;;;;;;;35.67;19.75;;;;;;;17.24;100.00;101053.13;5093724;28;20044;-77
2023/08/25 01:29:04;;;;;;;39.33;20.17;;;;;;;17.30;100.00;101031.91;5094131;28;20032;-77
2023/08/25 01:31:29;;;;;;;36.40;18.75;;;;;;;17.34;100.00;101041.31;5094169;28;20039;-77
2023/08/25 01:33:55;;;;;;;44.05;21.05;;;;;;;17.31;100.00;101036.28;5093983;28;20460;-77
2023/08/25 01:36:25;;;;;;;42.00;20.35;;;;;;;17.30;100.00;101034.59;5094015;28;20391;-77
2023/08/25 01:39:06;;;;;;;38.33;18.30;;;;;;;17.30;100.00;101039.97;5093914;28;20039;-78
2023/08/25 01:41:41;;;;;;;40.30;20.60;;;;;;;17.24;100.00;101039.69;5094520;28;20039;-77
2023/08/25 01:44:08;;;;;;;37.05;18.70;;;;;;;17.19;100.00;101033.16;5075668;28;20134;-77
2023/08/25 01:46:36;;;;;;;43.33;20.65;;;;;;;17.15;100.00;101029.97;5093840;28;20040;-77
2023/08/25 01:49:02;;;;;;;37.67;18.00;;;;;;;17.10;100.00;101033.19;5092015;28;20036;-77
2023/08/25 01:51:29;;;;;;;39.42;18.58;;;;;;;17.04;100.00;101031.22;5093432;28;20035;-77
2023/08/25 01:53:55;;;;;;;39.95;19.90;;;;;;;17.02;100.00;101024.38;5093340;28;20040;-77
2023/08/25 01:56:21;;;;;;;35.63;18.65;;;;;;;16.99;100.00;101025.56;5093714;28;20032;-77
2023/08/25 01:58:46;;;;;;;46.22;20.83;;;;;;;16.97;100.00;101030.25;5093590;28;20032;-77
2023/08/25 02:01:11;;;;;;;51.10;22.23;;;;;;;16.96;100.00;101015.16;5094176;28;20468;-77
2023/08/25 02:03:37;;;;;;;45.35;21.77;;;;;;;16.97;100.00;101019.50;5093629;28;20031;-77
2023/08/25 02:06:02;;;;;;;42.22;19.90;;;;;;;16.97;100.00;101018.69;5093666;28;20062;-77
2023/08/25 02:08:28;;;;;;;43.95;21.00;;;;;;;16.95;100.00;101026.09;5093538;28;20050;-78
2023/08/25 02:10:53;;;;;;;45.05;19.90;;;;;;;16.89;100.00;101019.56;5075444;28;20448;-77
2023/08/25 02:13:19;;;;;;;36.85;19.23;;;;;;;16.84;100.00;101022.75;5093278;28;20460;-78
2023/08/25 02:15:46;;;;;;;37.97;19.98;;;;;;;16.79;100.00;101019.75;5093487;28;20063;-77
2023/08/25 02:18:11;;;;;;;50.33;23.88;;;;;;;16.75;100.00;101015.75;5094274;28;20040;-77
2023/08/25 02:20:38;;;;;;;45.20;22.13;;;;;;;16.71;100.00;101009.88;5058522;28;20537;-77
2023/08/25 02:23:04;;;;;;;42.75;22.33;;;;;;;16.68;100.00;101004.03;5093171;28;20059;-77
2023/08/25 02:25:30;;;;;;;45.75;23.10;;;;;;;16.64;100.00;101002.69;5093291;28;20386;-77
2023/08/25 02:27:56;;;;;;;56.03;24.98;;;;;;;16.63;100.00;101001.00;5093275;28;20029;-78
2023/08/25 02:30:22;;;;;;;48.15;23.05;;;;;;;16.58;100.00;100998.84;5093248;28;20368;-77
2023/08/25 02:32:47;;;;;;;50.45;25.20;;;;;;;16.54;100.00;100990.31;5093338;28;20085;-77
2023/08/25 02:35:13;;;;;;;50.92;25.10;;;;;;;16.52;100.00;100992.31;5093166;28;20040;-77
2023/08/25 02:38:09;;;;;;;57.97;27.73;;;;;;;16.49;100.00;100986.47;5093328;28;20028;-78
2023/08/25 02:40:35;;;;;;;52.10;26.83;;;;;;;16.44;100.00;100988.88;5092895;28;20039;-78
2023/08/25 02:43:02;;;;;;;42.38;21.17;;;;;;;16.45;100.00;100982.47;5092682;28;20048;-78
2023/08/25 02:45:28;;;;;;;57.45;28.35;;;;;;;16.45;100.00;100977.09;5093406;28;20032;-77
2023/08/25 02:47:54;;;;;;;54.60;27.05;;;;;;;16.46;100.00;100971.53;5093139;28;20066;-78
2023/08/25 02:50:20;;;;;;;53.60;27.80;;;;;;;16.47;100.00;100973.22;5092726;28;20365;-78
2023/08/25 02:52:46;;;;;;;59.92;30.10;;;;;;;16.48;100.00;100961.47;5075734;28;20342;-77
2023/08/25 02:55:16;;;;;;;72.07;33.08;;;;;;;16.53;100.00;100967.16;5093130;28;20085;-78
2023/08/25 02:57:51;;;;;;;70.35;33.78;;;;;;;16.61;100.00;100962.75;5074718;28;20028;-78
2023/08/25 03:00:25;;;;;;;71.53;32.65;;;;;;;16.61;100.00;100960.06;5094097;28;20037;-77
2023/08/25 03:02:52;;;;;;;111.95;40.75;;;;;;;16.67;100.00;100957.50;5097575;28;20352;-78
2023/08/25 03:05:18;;;;;;;106.25;42.63;;;;;;;16.74;100.00;100950.41;5078753;28;20032;-78
2023/08/25 03:07:43;;;;;;;104.55;41.63;;;;;;;16.79;100.00;100949.88;5097074;28;20039;-78
2023/08/25 03:10:09;;;;;;;107.55;42.58;;;;;;;16.85;100.00;100949.16;5096648;28;20384;-78
2023/08/25 03:12:35;;;;;;;108.90;42.75;;;;;;;16.90;100.00;100954.06;5096850;28;20032;-78
2023/08/25 03:15:00;;;;;;;129.70;44.90;;;;;;;16.95;100.00;100946.28;5078830;28;20036;-78
2023/08/25 03:17:26;;;;;;;133.93;45.95;;;;;;;17.00;100.00;100949.25;5096925;28;20417;-78
2023/08/25 03:19:51;;;;;;;125.55;44.35;;;;;;;17.05;100.00;100940.69;5096926;28;20476;-78
2023/08/25 03:22:17;;;;;;;134.75;45.22;;;;;;;17.10;100.00;100951.72;5096588;28;20028;-77
2023/08/25 03:24:42;;;;;;;133.57;44.72;;;;;;;17.12;100.00;100943.47;5096966;28;20035;-77
2023/08/25 03:27:07;;;;;;;125.88;43.88;;;;;;;17.13;100.00;100942.47;5096699;28;20085;-78
2023/08/25 03:29:33;;;;;;;125.30;43.03;;;;;;;17.14;100.00;100941.44;5078426;28;20036;-78
2023/08/25 03:31:59;;;;;;;126.85;42.85;;;;;;;17.16;100.00;100939.44;5096783;28;20452;-78
2023/08/25 03:34:25;;;;;;;126.93;42.58;;;;;;;17.20;100.00;100930.00;5096955;28;20035;-78
2023/08/25 03:36:50;;;;;;;116.32;42.28;;;;;;;17.22;100.00;100934.16;5078815;28;20036;-78
2023/08/25 03:39:16;;;;;;;127.55;42.03;;;;;;;17.23;100.00;100927.78;5077976;28;20110;-78
2023/08/25 03:41:41;;;;;;;114.07;40.08;;;;;;;17.26;100.00;100927.41;5096012;28;20518;-78
2023/08/25 03:44:07;;;;;;;120.53;40.95;;;;;;;17.29;100.00;100931.59;5095995;28;20044;-78
2023/08/25 03:46:32;;;;;;;115.07;38.88;;;;;;;17.31;100.00;100924.16;5078000;28;20032;-78
2023/08/25 03:48:58;;;;;;;107.30;37.53;;;;;;;17.33;100.00;100922.16;5096472;28;20028;-77
2023/08/25 03:51:24;;;;;;;108.05;37.67;;;;;;;17.35;100.00;100932.72;5096083;28;20067;-77
2023/08/25 03:53:49;;;;;;;105.95;37.10;;;;;;;17.36;100.00;100934.38;5096362;28;20036;-77
2023/08/25 03:56:14;;;;;;;113.45;38.67;;;;;;;17.38;100.00;100932.38;5096275;28;20032;-77
2023/08/25 03:58:40;;;;;;;109.95;37.92;;;;;;;17.41;100.00;100940.88;5096241;28;20024;-77
2023/08/25 04:01:06;;;;;;;111.55;36.50;;;;;;;17.43;100.00;100928.09;5077522;28;20039;-78
2023/08/25 04:03:31;;;;;;;111.90;38.05;;;;;;;17.43;100.00;100924.56;5095744;28;20028;-77
2023/08/25 04:05:57;;;;;;;106.28;36.95;;;;;;;17.46;100.00;100929.59;5060807;28;20072;-77
2023/08/25 04:08:23;;;;;;;104.80;36.70;;;;;;;17.48;100.00;100924.03;5095743;28;20130;-77
2023/08/25 04:10:48;;;;;;;94.18;35.50;;;;;;;17.49;100.00;100918.47;5095979;28;20035;-77
2023/08/25 04:13:13;;;;;;;107.72;37.45;;;;;;;17.50;100.00;100928.22;5094343;28;20178;-77
2023/08/25 04:15:39;;;;;;;102.53;35.83;;;;;;;17.50;100.00;100920.13;5095319;28;20074;-77
2023/08/25 04:18:05;;;;;;;91.43;33.25;;;;;;;17.50;100.00;100922.84;5077971;28;20044;-78
2023/08/25 04:20:31;;;;;;;94.88;34.03;;;;;;;17.50;100.00;100925.53;5095458;28;20461;-78
2023/08/25 04:22:56;;;;;;;87.97;33.13;;;;;;;17.51;100.00;100924.50;5095610;28;20410;-78
2023/08/25 04:25:21;;;;;;;91.60;33.72;;;;;;;17.53;100.00;100922.47;5095650;28;20028;-77
2023/08/25 04:27:47;;;;;;;87.20;32.60;;;;;;;17.55;100.00;100919.59;5095628;28;20067;-77
2023/08/25 04:30:12;;;;;;;86.72;31.50;;;;;;;17.58;100.00;100919.22;5095811;28;20043;-77
2023/08/25 04:32:38;;;;;;;89.72;33.15;;;;;;;17.58;100.00;100922.72;5095258;28;20028;-77
2023/08/25 04:35:03;;;;;;;90.57;32.30;;;;;;;17.61;100.00;100932.31;5077219;28;20081;-77
2023/08/25 04:37:30;;;;;;;78.15;31.13;;;;;;;17.61;100.00;100926.91;5094778;28;20051;-77
2023/08/25 04:39:55;;;;;;;82.00;30.90;;;;;;;17.64;100.00;100931.94;5095040;28;20040;-77
2023/08/25 04:42:24;;;;;;;72.05;28.20;;;;;;;17.67;100.00;100933.44;5077203;28;20063;-77
2023/08/25 04:44:49;;;;;;;84.88;33.05;;;;;;;17.69;100.00;100934.06;5095284;28;20436;-77
2023/08/25 04:47:16;;;;;;;97.57;33.47;;;;;;;17.68;100.00;100935.09;5095277;28;20044;-77
2023/08/25 04:49:43;;;;;;;85.05;32.10;;;;;;;17.69;100.00;100940.31;5095292;28;20501;-77
2023/08/25 04:52:08;;;;;;;91.35;31.95;;;;;;;17.70;100.00;100941.97;5076833;28;20028;-78
2023/08/25 04:54:33;;;;;;;86.30;31.77;;;;;;;17.71;100.00;100934.75;5095173;28;20464;-78
2023/08/25 04:56:59;;;;;;;87.10;31.45;;;;;;;17.71;100.00;100932.06;5076732;28;20382;-77
2023/08/25 04:59:24;;;;;;;77.72;30.92;;;;;;;17.71;100.00;100929.38;5095031;28;20332;-77
2023/08/25 05:01:50;;;;;;;83.25;31.30;;;;;;;17.71;100.00;100929.38;5094298;28;20024;-76
2023/08/25 05:04:15;;;;;;;83.05;32.47;;;;;;;17.70;100.00;100931.19;5076789;28;20516;-77
2023/08/25 05:06:40;;;;;;;78.40;31.92;;;;;;;17.70;100.00;100933.06;5094799;28;20352;-78
2023/08/25 05:09:06;;;;;;;86.50;32.55;;;;;;;17.71;100.00;100934.75;5076598;28;20027;-78
2023/08/25 05:11:33;;;;;;;79.20;30.98;;;;;;;17.71;100.00;100922.13;5094220;28;20032;-77
2023/08/25 05:13:59;;;;;;;80.22;32.38;;;;;;;17.71;100.00;100919.44;5094412;28;20089;-77
2023/08/25 05:16:24;;;;;;;76.40;30.98;;;;;;;17.72;100.00;100921.09;5076087;28;20422;-77
2023/08/25 05:18:50;;;;;;;72.20;30.17;;;;;;;17.72;100.00;100922.94;5076171;28;20028;-77
2023/08/25 05:21:15;;;;;;;81.38;31.42;;;;;;;17.70;100.00;100917.75;5094179;28;20067;-77
2023/08/25 05:23:46;;;;;;;78.30;34.08;;;;;;;17.69;100.00;100921.47;5093898;28;20361;-77
2023/08/25 05:26:13;;;;;;;76.30;32.20;;;;;;;17.69;100.00;100918.78;5094511;28;20132;-77
2023/08/25 05:28:38;;;;;;;75.80;34.83;;;;;;;17.70;100.00;100925.00;5075915;28;20123;-77
2023/08/25 05:31:03;;;;;;;76.80;35.35;;;;;;;17.71;100.00;100924.81;5094372;28;20114;-77
2023/08/25 05:33:29;;;;;;;80.32;34.92;;;;;;;17.75;100.00;100927.94;5094015;28;20032;-77
2023/08/25 05:35:54;;;;;;;69.80;33.45;;;;;;;17.78;100.00;100923.06;5094041;28;20123;-77
2023/08/25 05:38:19;;;;;;;81.95;36.10;;;;;;;17.78;100.00;100917.66;5075587;28;20024;-77
2023/08/25 05:40:45;;;;;;;80.80;33.85;;;;;;;17.78;100.00;100906.91;5093834;28;20053;-77
2023/08/25 05:43:10;;;;;;;78.05;34.35;;;;;;;17.78;100.00;100904.22;5093268;28;20058;-77
2023/08/25 05:45:36;;;;;;;77.40;34.72;;;;;;;17.80;100.00;100918.31;5094360;28;20376;-78
2023/08/25 05:48:01;;;;;;;72.55;34.70;;;;;;;17.84;100.00;100908.03;5093932;28;20032;-77
2023/08/25 05:50:26;;;;;;;76.78;34.47;;;;;;;17.90;100.00;100901.06;5094394;28;20051;-77
2023/08/25 05:52:53;;;;;;;71.93;32.63;;;;;;;17.97;100.00;100905.56;5075661;28;20198;-77
2023/08/25 05:55:19;;;;;;;68.03;32.80;;;;;;;18.00;100.00;100909.72;5094159;28;20097;-77
2023/08/25 05:57:44;;;;;;;58.03;31.45;;;;;;;18.03;100.00;100909.34;5093992;28;20456;-77
2023/08/25 06:00:10;;;;;;;63.72;31.25;;;;;;;18.07;100.00;100916.03;5075280;28;20032;-77
2023/08/25 06:02:36;;;;;;;61.60;28.85;;;;;;;18.10;100.00;100909.44;5093565;28;20032;-77
2023/08/25 06:05:01;;;;;;;59.15;29.58;;;;;;;18.09;100.00;100902.38;5075435;28;20077;-77
2023/08/25 06:07:26;;;;;;;56.90;27.77;;;;;;;18.09;100.00;100907.75;5093685;28;20034;-77
2023/08/25 06:09:52;;;;;;;50.33;25.55;;;;;;;18.09;100.00;100905.91;5093669;28;20036;-77
2023/08/25 06:12:17;;;;;;;52.50;26.05;;;;;;;18.11;100.00;100911.94;5093432;28;20380;-77
2023/08/25 06:14:43;;;;;;;56.03;25.88;;;;;;;18.11;100.00;100906.56;5075242;28;20032;-77
2023/08/25 06:17:08;;;;;;;51.30;27.38;;;;;;;18.09;100.00;100900.53;5075658;28;20035;-77
2023/08/25 06:19:36;;;;;;;54.22;27.20;;;;;;;18.08;100.00;100893.47;5075455;28;20076;-78
2023/08/25 06:22:01;;;;;;;55.50;28.65;;;;;;;18.11;100.00;100903.88;5093666;28;20380;-77
2023/08/25 06:24:27;;;;;;;54.30;28.80;;;;;;;18.14;100.00;100891.91;5093732;28;20036;-77
2023/08/25 06:26:53;;;;;;;64.57;29.92;;;;;;;18.16;100.00;100900.59;5075915;28;20039;-77
2023/08/25 06:29:18;;;;;;;56.22;28.48;;;;;;;18.15;100.00;100905.16;5093242;28;20031;-78
2023/08/25 06:31:44;;;;;;;62.15;29.42;;;;;;;18.19;100.00;100912.88;5093189;28;20423;-78
2023/08/25 06:34:09;;;;;;;59.60;30.70;;;;;;;18.22;100.00;100902.53;5093432;28;20341;-78
2023/08/25 06:36:34;;;;;;;57.70;28.23;;;;;;;18.28;100.00;100909.03;5074566;28;20387;-78
2023/08/25 06:39:00;;;;;;;63.10;29.70;;;;;;;18.32;100.00;100905.78;5093254;28;20543;-77
2023/08/25 06:41:25;;;;;;;59.40;29.77;;;;;;;18.39;100.00;100907.72;5093087;28;20142;-77
2023/08/25 06:43:51;;;;;;;58.00;29.08;;;;;;;18.48;100.00;100910.13;5092601;28;20143;-76
2023/08/25 06:46:17;;;;;;;55.60;28.50;;;;;;;18.55;100.00;100902.09;5093228;28;20032;-79
2023/08/25 06:48:42;;;;;;;50.38;28.48;;;;;;;18.62;100.00;100905.72;5093539;28;20058;-78
2023/08/25 06:51:08;;;;;;;49.72;27.35;;;;;;;18.66;100.00;100903.47;5093372;28;20079;-80
2023/08/25 06:53:33;;;;;;;51.35;25.90;;;;;;;18.71;100.00;100900.22;5093244;28;20111;-80
2023/08/25 06:55:59;;;;;;;49.78;26.30;;;;;;;18.82;100.00;100899.69;5093081;28;20532;-81
2023/08/25 06:58:24;;;;;;;42.65;24.52;;;;;;;18.89;100.00;100906.03;5093331;28;20531;-80
2023/08/25 07:00:50;;;;;;;38.47;22.48;;;;;;;18.95;100.00;100920.59;5074946;28;20039;-80
2023/08/25 07:03:16;;;;;;;43.72;23.10;;;;;;;19.03;100.00;100909.66;5093172;28;20032;-79
2023/08/25 07:05:42;;;;;;;37.78;21.50;;;;;;;19.08;100.00;100904.53;5092933;28;20483;-79
2023/08/25 07:08:08;;;;;;;33.72;20.52;;;;;;;19.11;100.00;100893.38;5093102;28;20039;-78
2023/08/25 07:10:34;;;;;;;48.53;22.60;;;;;;;19.15;100.00;100889.25;5093021;28;20062;-80
2023/08/25 07:13:00;;;;;;;33.38;18.65;;;;;;;19.31;100.00;100885.44;5092855;28;20128;-79
2023/08/25 07:15:25;;;;;;;30.75;19.33;;;;;;;19.50;100.00;100893.88;5074901;28;20388;-80
2023/08/25 07:17:51;;;;;;;36.70;18.48;;;;;;;19.64;100.00;100887.53;5075154;28;20098;-79
2023/08/25 07:20:16;;;;;;;32.42;16.65;;;;;;;19.80;100.00;100885.59;5092851;28;20032;-79
2023/08/25 07:22:41;;;;;;;32.30;16.23;;;;;;;19.94;100.00;100876.50;5092841;28;20109;-79
2023/08/25 07:25:07;;;;;;;28.05;16.08;;;;;;;20.01;100.00;100868.47;5092974;28;20410;-80
2023/08/25 07:27:33;;;;;;;25.90;14.27;;;;;;;20.06;100.00;100863.28;5075493;28;20353;-81
2023/08/25 07:29:58;;;;;;;25.98;12.25;;;;;;;20.18;100.00;100866.25;5074847;28;20085;-79
2023/08/25 07:32:24;;;;;;;24.33;13.20;;;;;;;20.19;100.00;100863.34;5074913;28;20076;-79
2023/08/25 07:34:49;;;;;;;25.60;12.68;;;;;;;20.15;100.00;100867.47;5092318;28;20377;-80
2023/08/25 07:37:15;;;;;;;22.50;12.98;;;;;;;20.17;100.00;100857.31;5092770;28;20102;-80
2023/08/25 07:39:41;;;;;;;18.80;11.32;;;;;;;20.24;100.00;100862.72;5092568;28;20475;-81
2023/08/25 07:42:08;;;;;;;23.42;12.00;;;;;;;20.23;100.00;100863.78;5092592;28;20039;-81
2023/08/25 07:44:35;;;;;;;25.63;11.00;;;;;;;20.26;100.00;100869.59;5074342;28;20552;-81
2023/08/25 07:47:00;;;;;;;21.58;10.82;;;;;;;20.30;100.00;100863.78;5092648;28;20028;-79
2023/08/25 07:49:26;;;;;;;19.00;10.98;;;;;;;20.32;100.00;100862.56;5077373;28;20100;-81
2023/08/25 07:51:51;;;;;;;26.08;10.95;;;;;;;20.31;100.00;100855.47;5077812;28;20032;-80
2023/08/25 07:54:16;;;;;;;16.90;9.95;;;;;;;20.32;100.00;100856.31;5096982;28;20035;-80
2023/08/25 07:56:42;;;;;;;18.60;10.45;;;;;;;20.41;100.00;100866.72;5077917;28;20043;-81
2023/08/25 07:59:07;;;;;;;21.05;9.95;;;;;;;20.50;100.00;100864.69;5095826;28;20032;-81
2023/08/25 08:01:33;;;;;;;19.23;10.32;;;;;;;20.55;100.00;100874.88;5096195;28;20036;-81
2023/08/25 08:03:58;;;;;;;22.05;10.20;;;;;;;20.58;100.00;100874.47;5095485;28;20115;-81
2023/08/25 08:06:24;;;;;;;23.00;10.15;;;;;;;20.64;100.00;100870.94;5095861;28;20059;-81
2023/08/25 08:08:50;;;;;;;18.52;8.20;;;;;;;20.74;100.00;100876.00;5095882;28;20028;-81
2023/08/25 08:11:15;;;;;;;21.40;9.50;;;;;;;20.78;100.00;100877.25;5095808;28;20073;-83
2023/08/25 08:13:40;;;;;;;24.67;8.98;;;;;;;20.72;100.00;100878.06;5095968;28;20115;-81
2023/08/25 08:16:06;;;;;;;19.08;7.50;;;;;;;20.73;100.00;100877.84;5095415;28;20066;-80
2023/08/25 08:18:31;;;;;;;21.70;10.43;;;;;;;20.69;100.00;100873.91;5095648;28;20365;-79
2023/08/25 08:20:56;;;;;;;19.02;9.32;;;;;;;20.75;100.00;100874.94;5077336;28;20103;-81
2023/08/25 08:23:23;;;;;;;18.05;8.48;;;;;;;20.67;100.00;100875.97;5095444;28;20066;-83
2023/08/25 08:25:48;;;;;;;18.02;9.05;;;;;;;20.60;100.00;100870.53;5095453;28;20468;-85
2023/08/25 08:28:13;;;;;;;19.05;9.77;;;;;;;20.54;100.00;100881.31;5095089;28;20038;-81
2023/08/25 08:30:40;;;;;;;18.38;9.40;;;;;;;20.49;100.00;100883.81;5077686;28;20077;-80
2023/08/25 08:33:06;;;;;;;16.80;8.85;;;;;;;20.46;100.00;100887.75;5077295;28;20105;-79
2023/08/25 08:35:31;;;;;;;17.92;8.82;;;;;;;20.39;100.00;100890.44;5077630;28;20414;-82
2023/08/25 08:37:57;;;;;;;21.08;9.88;;;;;;;20.38;100.00;100891.47;5095132;28;20032;-81
2023/08/25 08:40:22;;;;;;;19.42;8.98;;;;;;;20.40;100.00;100891.25;5094717;28;20039;-83
2023/08/25 08:42:52;;;;;;;17.75;8.88;;;;;;;20.46;100.00;100885.03;5077353;28;20024;-82
2023/08/25 08:45:23;;;;;;;18.67;9.45;;;;;;;20.53;100.00;100890.47;5073066;28;20500;-84
2023/08/25 08:47:49;;;;;;;17.50;9.10;;;;;;;20.56;100.00;100880.09;5073784;28;20101;-82
2023/08/25 08:50:14;;;;;;;13.55;8.23;;;;;;;20.70;100.00;100886.38;5074706;28;20461;-81
2023/08/25 08:52:39;;;;;;;15.43;7.65;;;;;;;20.82;100.00;100886.59;5075357;28;20025;-82
2023/08/25 08:55:05;;;;;;;16.48;8.15;;;;;;;21.19;100.00;100880.81;5074677;28;20036;-81
2023/08/25 08:57:31;;;;;;;19.65;8.02;;;;;;;21.87;100.00;100887.81;5073464;28;20111;-81
2023/08/25 08:59:58;;;;;;;24.67;8.35;;;;;;;22.82;100.00;100882.56;5073667;28;20032;-82
2023/08/25 09:02:27;;;;;;;17.35;8.38;;;;;;;23.47;100.00;100884.19;5074746;28;20037;-83
2023/08/25 09:04:53;;;;;;;19.13;7.43;;;;;;;23.71;100.00;100887.06;5074507;28;20078;-84
2023/08/25 09:07:20;;;;;;;20.58;8.48;;;;;;;23.37;100.00;100889.28;5074521;28;20040;-84
2023/08/25 09:09:46;;;;;;;18.95;7.63;;;;;;;22.86;100.00;100886.53;5074035;28;20028;-82
2023/08/25 09:12:15;;;;;;;18.80;7.95;;;;;;;22.52;100.00;100888.59;5074813;28;20028;-84
2023/08/25 09:14:41;;;;;;;25.33;9.50;;;;;;;22.39;100.00;100888.69;5074674;28;20126;-84
2023/08/25 09:17:06;;;;;;;18.77;8.65;;;;;;;22.62;100.00;100896.28;5072995;28;20129;-84
2023/08/25 09:19:33;;;;;;;17.00;8.30;;;;;;;22.82;100.00;100904.28;5074105;28;20071;-84
2023/08/25 09:22:00;;;;;;;14.18;7.90;;;;;;;23.18;100.00;100905.50;5074029;28;20032;-84
2023/08/25 09:24:26;;;;;;;16.63;7.95;;;;;;;23.16;100.00;100914.94;5073108;28;20404;-84
2023/08/25 09:26:52;;;;;;;19.05;8.38;;;;;;;22.81;100.00;100910.78;5074034;28;20040;-84
2023/08/25 09:29:17;;;;;;;13.45;7.00;;;;;;;22.50;100.00;100906.16;5074573;28;20449;-85
2023/08/25 09:31:44;;;;;;;17.90;9.00;;;;;;;22.27;100.00;100906.63;5072732;28;20037;-85
2023/08/25 09:34:13;;;;;;;17.65;7.43;;;;;;;22.13;100.00;100909.41;5074620;28;20127;-85
2023/08/25 09:36:55;;;;;;;18.70;8.30;;;;;;;22.05;100.00;100903.38;5074004;28;20028;-84
2023/08/25 09:39:22;;;;;;;13.50;7.75;;;;;;;22.04;100.00;100910.69;5072575;28;20039;-85
2023/08/25 09:41:48;;;;;;;15.13;6.97;;;;;;;21.98;100.00;100906.94;5073425;28;20119;-85
2023/08/25 09:44:15;;;;;;;14.38;6.88;;;;;;;21.88;100.00;100911.97;5077876;28;20085;-86
2023/08/25 09:46:41;;;;;;;17.02;7.13;;;;;;;21.79;100.00;100905.13;5093985;28;20475;-81
2023/08/25 09:49:08;;;;;;;14.90;7.68;;;;;;;21.63;100.00;100900.97;5075515;28;20032;-82
2023/08/25 09:51:45;;;;;;;17.65;7.20;;;;;;;21.51;100.00;100905.38;5093592;28;20097;-82
2023/08/25 09:54:18;;;;;;;17.33;8.13;;;;;;;21.39;100.00;100902.44;5093996;28;20032;-82
2023/08/25 09:56:47;;;;;;;15.80;8.30;;;;;;;21.26;100.00;100906.00;5093668;28;20028;-81
2023/08/25 09:59:14;;;;;;;15.50;7.70;;;;;;;21.24;100.00;100900.81;5075398;28;20036;-81
2023/08/25 10:01:44;;;;;;;16.67;8.05;;;;;;;21.24;100.00;100897.25;5093480;28;20028;-79
2023/08/25 10:04:11;;;;;;;14.82;7.68;;;;;;;21.44;100.00;100902.66;5094317;28;20059;-79
2023/08/25 10:06:38;;;;;;;18.83;7.40;;;;;;;21.66;100.00;100896.00;5093850;28;20039;-79
2023/08/25 10:09:07;;;;;;;15.80;7.68;;;;;;;21.76;100.00;100903.66;5093098;28;20028;-79
2023/08/25 10:11:40;;;;;;;16.70;8.55;;;;;;;21.80;100.00;100891.38;5092437;28;20064;-79
2023/08/25 10:14:10;;;;;;;23.83;9.10;;;;;;;21.89;100.00;100894.69;5093843;28;20028;-79
2023/08/25 10:16:39;;;;;;;14.23;7.78;;;;;;;22.30;100.00;100887.22;5093286;28;20032;-81
2023/08/25 10:19:07;;;;;;;16.10;8.20;;;;;;;22.92;100.00;100887.53;5093216;28;20035;-79
2023/08/25 10:21:34;;;;;;;23.48;10.43;;;;;;;23.03;100.00;100885.97;5093653;28;20094;-80
2023/08/25 10:24:00;;;;;;;22.90;11.35;;;;;;;22.87;100.00;100885.47;5093197;28;20028;-78
2023/08/25 10:26:26;;;;;;;30.88;10.85;;;;;;;23.35;100.00;100875.13;5093264;28;20059;-79
2023/08/25 10:28:52;;;;;;;19.70;9.90;;;;;;;25.05;100.00;100880.75;5092854;28;20035;-79
2023/08/25 10:31:19;;;;;;;18.75;9.20;;;;;;;26.49;100.00;100864.78;5093607;28;20086;-79
2023/08/25 10:33:53;;;;;;;19.10;8.82;;;;;;;27.26;100.00;100868.84;5092942;28;20469;-79
2023/08/25 10:36:20;;;;;;;20.52;9.65;;;;;;;26.55;100.00;100871.97;5093061;28;20028;-79
2023/08/25 10:39:09;;;;;;;17.73;9.10;;;;;;;25.97;100.00;100864.84;5093130;28;20043;-78
2023/08/25 10:41:42;;;;;;;19.55;9.10;;;;;;;25.27;100.00;100874.72;5092956;28;20032;-77
2023/08/25 10:44:10;;;;;;;17.23;8.57;;;;;;;25.30;100.00;100866.09;5092849;28;20048;-78
2023/08/25 10:46:38;;;;;;;19.23;8.93;;;;;;;25.39;100.00;100877.47;5093279;28;20040;-78
2023/08/25 10:49:06;;;;;;;19.35;9.25;;;;;;;25.05;100.00;100878.00;5093098;28;20040;-78
2023/08/25 10:51:33;;;;;;;14.35;8.13;;;;;;;24.91;100.00;100877.38;5092965;28;20032;-78
2023/08/25 10:53:59;;;;;;;18.05;8.13;;;;;;;24.91;100.00;100871.94;5092843;28;20110;-79
2023/08/25 10:56:26;;;;;;;17.95;7.72;;;;;;;24.83;100.00;100869.56;5093097;28;20050;-79
2023/08/25 10:59:06;;;;;;;16.92;8.05;;;;;;;24.60;100.00;100886.66;5093475;28;20032;-76
2023/08/25 11:01:37;;;;;;;14.10;7.85;;;;;;;24.33;100.00;100883.44;5093145;28;20020;-79